• Join FlightAware (Why Join?)
  • Login
  • US Flag 
05:41PM EDT


 

Airport Tracker/Info


-or-


 

Live Flight TrackerFlight Track Log ✈ UPS214 ✈ 20-Mar-2014 ✈ EDDK / CGN - KSDF

Flight Track Log - Related Links

Times and Time Zones

All times are in EDT time to prevent confusion due to time zone crossing. See the UPS214 flight status page for this flight to view local times or setup timezone preferences in your user account.

Time Position Orientation Groundspeed Altitude Reporting Facility
EDT Latitude Longitude Course Direction KTS MPH feet Rate Location/Type
07:29PM 61.7802 -21.8010 290° West  Level FlightAware Approximate
07:30PM 61.7949 -22.0632 277° West  Level FlightAware Approximate
07:31PM 61.8091 -22.3255 277° West  Level FlightAware Approximate
07:32PM 61.8227 -22.5881 276° West  Level FlightAware Approximate
07:33PM 61.8359 -22.8510 276° West  Level FlightAware Approximate
07:34PM 61.8486 -23.1140 276° West  Level FlightAware Approximate
07:35PM 61.8607 -23.3773 276° West  Level FlightAware Approximate
07:36PM 61.8724 -23.6408 275° West  Level FlightAware Approximate
07:37PM 61.8835 -23.9045 275° West  Level FlightAware Approximate
07:38PM 61.8942 -24.1683 275° West  Level FlightAware Approximate
07:39PM 61.9044 -24.4324 275° West  Level FlightAware Approximate
07:40PM 61.9140 -24.6966 275° West  Level FlightAware Approximate
07:41PM 61.9231 -24.9610 274° West  Level FlightAware Approximate
07:42PM 61.9318 -25.2255 274° West  Level FlightAware Approximate
07:43PM 61.9399 -25.4902 274° West  Level FlightAware Approximate
07:44PM 61.9475 -25.7550 274° West  Level FlightAware Approximate
07:45PM 61.9546 -26.0199 273° West  Level FlightAware Approximate
07:46PM 61.9612 -26.2850 273° West  Level FlightAware Approximate
07:47PM 61.9673 -26.5501 273° West  Level FlightAware Approximate
07:48PM 61.9729 -26.8154 273° West  Level FlightAware Approximate
07:49PM 61.9779 -27.0808 272° West  Level FlightAware Approximate
07:50PM 61.9825 -27.3462 272° West  Level FlightAware Approximate
07:51PM 61.9865 -27.6117 272° West  Level FlightAware Approximate
07:52PM 61.9901 -27.8773 272° West  Level FlightAware Approximate
07:53PM 61.9931 -28.1430 272° West  Level FlightAware Approximate
07:54PM 61.9956 -28.4087 271° West  Level FlightAware Approximate
07:55PM 61.9976 -28.6744 271° West  Level FlightAware Approximate
07:56PM 61.9991 -28.9402 271° West  Level FlightAware Approximate
07:57PM 62.0001 -29.2059 271° West  Level FlightAware Approximate
07:58PM 62.0006 -29.4717 270° West  Level FlightAware Approximate
07:59PM 62.0005 -29.7375 270° West  Level FlightAware Approximate
08:00PM 61.9998 -30.0033 263° West  Level FlightAware Approximate
08:01PM 61.9833 -30.2667 263° West  Level FlightAware Approximate
08:02PM 61.9662 -30.5298 262° West  Level FlightAware Approximate
08:03PM 61.9487 -30.7926 262° West  Level FlightAware Approximate
08:04PM 61.9307 -31.0551 262° West  Level FlightAware Approximate
08:05PM 61.9122 -31.3172 262° West  Level FlightAware Approximate
08:06PM 61.8931 -31.5791 261° West  Level FlightAware Approximate
08:07PM 61.8736 -31.8406 261° West  Level FlightAware Approximate
08:08PM 61.8536 -32.1018 261° West  Level FlightAware Approximate
08:09PM 61.8331 -32.3626 261° West  Level FlightAware Approximate
08:10PM 61.8121 -32.6231 260° West  Level FlightAware Approximate
08:11PM 61.7909 -32.8834 260° West  Level FlightAware Approximate
08:12PM 61.7691 -33.1432 260° West  Level FlightAware Approximate
08:13PM 61.7468 -33.4027 260° West  Level FlightAware Approximate
08:14PM 61.7241 -33.6618 260° West  Level FlightAware Approximate
08:15PM 61.7009 -33.9205 259° West  Level FlightAware Approximate
08:16PM 61.6772 -34.1788 259° West  Level FlightAware Approximate
08:17PM 61.6530 -34.4367 259° West  Level FlightAware Approximate
08:18PM 61.6283 -34.6943 259° West  Level FlightAware Approximate
08:19PM 61.6031 -34.9514 258° West  Level FlightAware Approximate
08:20PM 61.5775 -35.2080 258° West  Level FlightAware Approximate
08:21PM 61.5514 -35.4643 258° West  Level FlightAware Approximate
08:22PM 61.5248 -35.7201 258° West  Level FlightAware Approximate
08:23PM 61.4977 -35.9755 258° West  Level FlightAware Approximate
08:23PM 61.3833 -36.9333 256° West 470 541 32,000  Level Gander Center
08:24PM 61.4701 -36.2304 257° West  Level FlightAware Approximate
08:24PM 61.3500 -37.1667 254° West 470 541 32,000  Level Gander Center
08:25PM 61.4421 -36.4849 257° West  Level FlightAware Approximate
08:25PM 61.3333 -37.4333 263° West 470 541 32,000  Level Gander Center
08:26PM 61.4136 -36.7389 257° West  Level FlightAware Approximate
08:26PM 61.3000 -37.6833 255° West 470 541 32,000  Level Gander Center
08:27PM 61.3846 -36.9924 257° West  Level FlightAware Approximate
08:27PM 61.2667 -37.9667 256° West 470 541 32,000  Level Gander Center
08:28PM 61.3551 -37.2455 256° West  Level FlightAware Approximate
08:29PM 61.2000 -38.4833 255° West 470 541 32,000  Level Gander Center
08:30PM 61.1667 -38.7167 254° West 470 541 32,000  Level Gander Center
08:31PM 61.1333 -39.0000 256° West 470 541 32,000  Level Gander Center
08:34PM 61.0333 -39.7500 253° West 470 541 32,000 -60 Level Gander Center
08:35PM 61.0000 -39.9833 254° West 460 529 31,900  Descending Gander Center
08:36PM 60.9667 -40.2500 256° West 460 529 32,000  Climbing Gander Center
08:37PM 60.9167 -40.5000 248° West 460 529 32,000  Level Gander Center
08:38PM 60.8833 -40.7333 254° West 460 529 32,000  Level Gander Center
08:39PM 60.8333 -41.0000 249° West 470 541 32,100  Climbing Gander Center
08:40PM 60.8263 -41.1062 253° West  Level FlightAware Approximate
08:40PM 60.8000 -41.2333 254° West 470 541 32,000  Level Gander Center
08:41PM 60.7500 -41.5167 250° West 470 541 32,000  Level Gander Center
08:42PM 60.7167 -41.7500 254° West 460 529 32,000  Level Gander Center
08:43PM 60.6667 -41.9833 246° West 460 529 32,000  Level Gander Center
08:44PM 60.6333 -42.2167 254° West 450 518 32,000  Level Gander Center
08:45PM 60.6000 -42.4500 254° West 450 518 32,000  Level Gander Center
08:46PM 60.5500 -42.7167 249° West 460 529 32,100  Climbing Gander Center
08:47PM 60.5167 -42.9500 254° West 470 541 32,000 -60 Descending Gander Center
08:48PM 60.4667 -43.1833 247° West 470 541 32,000  Level Gander Center
08:49PM 60.4167 -43.4167 247° West 460 529 32,000 -60 Level Gander Center
08:50PM 60.3833 -43.6833 256° West 450 518 31,900  Descending Gander Center
08:51PM 60.3333 -43.9167 247° West 450 518 32,000  Climbing Gander Center
08:52PM 60.3000 -44.1333 253° West 440 506 32,000  Level Gander Center
08:53PM 60.2500 -44.3667 247° West 440 506 32,000  Level Gander Center
08:54PM 60.2167 -44.5833 253° West 450 518 32,000  Level Gander Center
08:55PM 60.1500 -44.8167 240° Southwest 450 518 32,000  Level Gander Center
08:56PM 60.1000 -45.0833 249° West 460 529 32,000  Level Gander Center
08:57PM 60.0667 -45.3167 254° West 460 529 32,000  Level Gander Center
08:58PM 60.0167 -45.5333 245° Southwest 460 529 32,000 -60 Level Gander Center
08:59PM 59.9667 -45.7667 247° West 450 518 31,900  Descending Gander Center
09:00PM 59.9167 -45.9833 245° Southwest 450 518 32,000  Climbing Gander Center
09:01PM 59.8833 -46.2167 254° West 450 518 32,000  Level Gander Center
09:02PM 59.8167 -46.4667 242° Southwest 450 518 32,000  Level Gander Center
09:03PM 59.7833 -46.6833 253° West 460 529 32,000  Level Gander Center
09:04PM 59.7167 -46.9167 241° Southwest 470 541 32,000  Level Gander Center
09:05PM 59.6667 -47.1333 246° West 460 529 32,000  Level Gander Center
09:06PM 59.6333 -47.3833 255° West 450 518 32,000  Level Gander Center
09:07PM 59.5667 -47.6167 241° Southwest 450 518 32,000  Level Gander Center
09:08PM 59.5167 -47.8333 246° West 450 518 32,000  Level Gander Center
09:09PM 59.4833 -48.0500 253° West 450 518 32,000  Level Gander Center
09:10PM 59.4167 -48.2667 239° Southwest 450 518 32,000  Level Gander Center
09:11PM 59.3667 -48.4833 246° West 450 518 32,000  Level Gander Center
09:12PM 59.3167 -48.7000 246° West 450 518 32,000  Level Gander Center
09:13PM 59.2500 -48.9167 239° Southwest 440 506 32,000  Level Gander Center
09:14PM 59.2167 -49.1333 253° West 440 506 32,000  Level Gander Center
09:15PM 59.1667 -49.3500 246° West 440 506 32,000  Level Gander Center
09:16PM 59.1167 -49.5667 246° West 440 506 32,000  Level Gander Center
09:17PM 59.0500 -49.7833 239° Southwest 440 506 32,000  Level Gander Center
09:18PM 59.0000 -50.0000 246° West 440 506 32,000  Level Gander Center
09:19PM 58.9500 -50.2000 244° Southwest 440 506 32,000  Level Gander Center
09:20PM 58.8833 -50.4167 239° Southwest 440 506 32,000  Level Gander Center
09:21PM 58.8333 -50.6333 246° West 440 506 32,000  Level Gander Center
09:22PM 58.7667 -50.8500 239° Southwest 440 506 32,000  Level Gander Center
09:23PM 58.7167 -51.0167 240° Southwest 440 506 32,000  Level Gander Center
09:24PM 58.6500 -51.2333 239° Southwest 430 495 32,000  Level Gander Center
09:25PM 58.5833 -51.4500 240° Southwest 430 495 32,000  Level Gander Center
09:26PM 58.5167 -51.6167 233° Southwest 430 495 32,000  Level Gander Center
09:27PM 58.4667 -51.8333 246° West 430 495 32,000  Level Gander Center
09:28PM 58.4167 -52.0333 245° Southwest 430 495 32,000  Level Gander Center
09:29PM 58.3500 -52.2500 240° Southwest 440 506 32,100  Climbing Gander Center
09:30PM 58.2833 -52.4167 233° Southwest 440 506 32,100 -60 Level Gander Center
09:43PM 57.5167 -54.8500 237° Southwest 400 460 32,000 -60 Descending Gander Center
09:44PM 57.4191 -55.0566 237° Southwest  Level FlightAware Approximate
09:44PM 57.4333 -55.0167 227° Southwest 430 495 32,000  Level Gander Center
09:48PM 57.2000 -55.6667 239° Southwest 370 426 32,000  Level Gander Center
09:49PM 57.1333 -55.8667 239° Southwest 390 449 32,100 600 Climbing Gander Center
09:50PM 57.0833 -56.0333 241° Southwest 410 472 33,300 900 Climbing Gander Center
09:51PM 57.0167 -56.2167 236° Southwest 420 483 34,000 300 Climbing Gander Center
09:52PM 56.9667 -56.4167 245° Southwest 430 495 34,000  Level Gander Center
09:53PM 56.8590 -56.7602 239° Southwest  Level Estimated
09:53PM 56.9000 -56.5667 231° Southwest 420 483 34,000  Level Gander Center
09:54PM 56.8500 -56.8000 249° West 430 495 34,000  Level Gander Center
09:55PM 56.7833 -56.9833 236° Southwest 410 472 34,000  Level Gander Center
09:56PM 56.7167 -57.1667 237° Southwest 420 483 34,000  Level Gander Center
09:57PM 56.6667 -57.3667 246° West 420 483 34,000  Level Gander Center
09:58PM 56.5833 -57.5833 235° Southwest 430 495 34,000  Level Gander Center
09:59PM 56.5167 -57.7333 231° Southwest 430 495 34,000  Level Gander Center
10:00PM 56.4667 -57.9667 249° West 430 495 34,000  Level Gander Center
10:01PM 56.4000 -58.1167 231° Southwest 430 495 34,000  Level Gander Center
10:02PM 56.3333 -58.3000 237° Southwest 430 495 34,000  Level Gander Center
10:03PM 56.2667 -58.4833 237° Southwest 430 495 34,000 -60 Level Gander Center
10:04PM 56.2167 -58.6667 244° Southwest 430 495 33,900  Descending Gander Center
10:05PM 56.1500 -58.8500 237° Southwest 420 483 34,000  Climbing Gander Center
10:06PM 56.0833 -59.0000 232° Southwest 420 483 33,900 -60 Descending Gander Center
10:07PM 56.0167 -59.1833 237° Southwest 420 483 33,900  Level Gander Center
10:08PM 55.9500 -59.3667 237° Southwest 420 483 34,000  Climbing Gander Center
10:09PM 55.8833 -59.5500 237° Southwest 420 483 34,000  Level Gander Center
10:10PM 55.8333 -59.7000 239° Southwest 420 483 34,000  Level Gander Center
10:11PM 55.7667 -59.8833 237° Southwest 420 483 34,000  Level Gander Center
10:12PM 55.7000 -60.0667 237° Southwest 420 483 34,000 -60 Level Gander Center
10:13PM 55.6333 -60.2167 232° Southwest 420 483 33,900  Descending Gander Center
10:14PM 55.5667 -60.4333 242° Southwest 420 483 34,000  Climbing Gander Center
10:15PM 55.5000 -60.5667 229° Southwest 420 483 34,000  Level Gander Center
10:16PM 55.4333 -60.7500 237° Southwest 420 483 34,000  Level Gander Center
10:17PM 55.3667 -60.9333 237° Southwest 420 483 34,000  Level Gander Center
10:18PM 55.3000 -61.1000 235° Southwest 430 495 34,000  Level Gander Center
10:19PM 55.2333 -61.2833 238° Southwest 430 495 34,000  Level Gander Center
10:20PM 55.1667 -61.4500 235° Southwest 420 483 34,000  Level Gander Center
10:21PM 55.1000 -61.6000 232° Southwest 420 483 34,000 -60 Level Gander Center
10:22PM 55.0333 -61.7833 238° Southwest 420 483 33,900  Descending Gander Center
10:23PM 54.9667 -61.9500 235° Southwest 420 483 34,000  Climbing Gander Center
10:24PM 54.9167 -62.1000 240° Southwest 420 483 34,000  Level Gander Center
10:25PM 54.8333 -62.2667 229° Southwest 420 483 34,000  Level Gander Center
10:26PM 54.7833 -62.4333 243° Southwest 420 483 34,000  Level Gander Center
10:27PM 54.7000 -62.6167 232° Southwest 420 483 34,000  Level Gander Center
10:28PM 54.6167 -62.7833 229° Southwest 430 495 34,000  Level Gander Center
10:29PM 54.5500 -62.9500 235° Southwest 430 495 34,000  Level Gander Center
10:30PM 54.4833 -63.1000 233° Southwest 430 495 34,000  Level Gander Center
10:31PM 54.4167 -63.2667 236° Southwest 430 495 34,000  Level Gander Center
10:32PM 54.3500 -63.4333 236° Southwest 420 483 34,000 -60 Level Gander Center
10:33PM 54.3000 -63.5667 237° Southwest 410 472 33,900 -60 Descending Gander Center
10:34PM 54.2167 -63.7333 230° Southwest 410 472 33,900  Level Gander Center
10:35PM 54.1500 -63.9000 236° Southwest 410 472 34,000  Climbing Gander Center
10:36PM 54.0833 -64.0667 236° Southwest 420 483 34,000  Level Gander Center
10:37PM 54.0167 -64.2167 233° Southwest 420 483 34,000  Level Gander Center
10:38PM 53.9500 -64.3833 236° Southwest 420 483 34,000  Level Gander Center
10:39PM 53.8667 -64.5500 230° Southwest 420 483 34,000  Level Gander Center
10:40PM 53.8000 -64.6833 230° Southwest 430 495 34,000  Level Gander Center
10:41PM 53.7333 -64.8500 236° Southwest 410 472 34,000  Level Gander Center
10:42PM 53.6500 -65.0000 227° Southwest 420 483 34,000  Level Gander Center
10:42PM 53.6167 -65.0667 230° Southwest 420 483 34,000  Level Montreal Center
10:43PM 53.5333 -65.2333 230° Southwest 420 483 34,000  Level Montreal Center
10:44PM 53.4667 -65.3833 233° Southwest 410 472 34,000  Level Montreal Center
10:45PM 53.3833 -65.5500 230° Southwest 420 483 34,000  Level Montreal Center
10:46PM 53.3167 -65.6833 230° Southwest 430 495 34,000  Level Montreal Center
10:47PM 53.2667 -65.8333 241° Southwest 410 472 34,000  Level Montreal Center
10:48PM 53.1833 -66.0167 233° Southwest 450 518 34,000  Level Montreal Center
10:49PM 53.1000 -66.1500 224° Southwest 430 495 34,000  Level Montreal Center
10:50PM 53.0333 -66.3167 236° Southwest 420 483 34,000  Level Montreal Center
10:51PM 52.9500 -66.4667 227° Southwest 440 506 34,000 -60 Level Montreal Center
10:52PM 52.8667 -66.6333 230° Southwest 430 495 33,900  Descending Montreal Center
10:53PM 52.8000 -66.7833 234° Southwest 440 506 34,000  Climbing Montreal Center
10:54PM 52.7167 -66.9333 228° Southwest 440 506 34,000  Level Montreal Center
10:55PM 52.6333 -67.1000 231° Southwest 440 506 34,000  Level Montreal Center
10:56PM 52.5667 -67.2500 234° Southwest 450 518 34,000  Level Montreal Center
10:57PM 52.4667 -67.4333 228° Southwest 450 518 34,000 -60 Level Montreal Center
10:58PM 52.4000 -67.5833 234° Southwest 440 506 33,900 -60 Descending Montreal Center
10:59PM 52.3333 -67.7500 237° Southwest 430 495 33,900  Level Montreal Center
11:00PM 52.2333 -67.9000 223° Southwest 440 506 34,000  Climbing Montreal Center
11:01PM 52.1667 -68.0500 234° Southwest 440 506 34,000  Level Montreal Center
11:02PM 52.0833 -68.2000 228° Southwest 450 518 34,000  Level Montreal Center
11:03PM 52.0000 -68.3500 228° Southwest 430 495 34,000  Level Montreal Center
11:04PM 51.9167 -68.5000 228° Southwest 450 518 34,100  Climbing Montreal Center
11:05PM 51.8500 -68.6500 234° Southwest 450 518 34,000 -60 Descending Montreal Center
11:06PM 51.7500 -68.8333 229° Southwest 450 518 34,000  Level Montreal Center
11:07PM 51.6833 -68.9833 234° Southwest 450 518 34,000 -60 Level Montreal Center
11:08PM 51.5833 -69.1333 223° Southwest 450 518 33,900 -60 Descending Montreal Center
11:09PM 51.5167 -69.2833 235° Southwest 440 506 33,900  Level Montreal Center
11:10PM 51.4333 -69.4167 225° Southwest 450 518 34,000  Climbing Montreal Center
11:11PM 51.3500 -69.5667 228° Southwest 450 518 34,000  Level Montreal Center
11:12PM 51.2667 -69.7500 234° Southwest 450 518 34,000  Level Montreal Center
11:13PM 51.1833 -69.9000 228° Southwest 460 529 34,000  Level Montreal Center
11:14PM 51.1000 -70.0333 225° Southwest 460 529 34,000  Level Montreal Center
11:15PM 51.0167 -70.1833 229° Southwest 450 518 34,000  Level Montreal Center
11:16PM 50.9167 -70.3333 223° Southwest 450 518 34,000  Level Montreal Center
11:17PM 50.8333 -70.4667 225° Southwest 450 518 34,000  Level Montreal Center
11:18PM 50.7333 -70.6167 224° Southwest 450 518 34,000  Level Montreal Center
11:19PM 50.6667 -70.7667 235° Southwest 460 529 34,000  Level Montreal Center
11:20PM 50.5667 -70.9000 220° Southwest 460 529 34,000  Level Montreal Center
11:21PM 50.4667 -71.0500 224° Southwest 460 529 34,000  Level Montreal Center
11:22PM 50.3833 -71.1833 226° Southwest 460 529 34,000 -60 Level Montreal Center
11:23PM 50.2833 -71.3333 224° Southwest 460 529 33,900 -60 Descending Montreal Center
11:24PM 50.2000 -71.4667 226° Southwest 450 518 33,900  Level Montreal Center
11:25PM 50.1167 -71.6167 229° Southwest 450 518 34,000  Climbing Montreal Center
11:26PM 50.0167 -71.7167 213° Southwest 450 518 34,000  Level Montreal Center
11:27PM 49.9167 -71.8833 227° Southwest 460 529 34,000  Level Montreal Center
11:28PM 49.8333 -72.0333 229° Southwest 460 529 34,000  Level Montreal Center
11:29PM 49.7333 -72.1667 221° Southwest 470 541 34,000  Level Montreal Center
11:30PM 49.6500 -72.3000 226° Southwest 460 529 34,000 -60 Level Montreal Center
11:31PM 49.5500 -72.4333 221° Southwest 460 529 33,900 -60 Descending Montreal Center
11:32PM 49.4500 -72.5833 224° Southwest 460 529 33,900  Level Montreal Center
11:33PM 49.3667 -72.7167 226° Southwest 460 529 34,000  Climbing Montreal Center
11:34PM 49.2833 -72.8500 226° Southwest 460 529 34,000  Level Montreal Center
11:35PM 49.1833 -72.9833 221° Southwest 460 529 34,000  Level Montreal Center
11:36PM 49.0833 -73.1167 221° Southwest 470 541 34,000  Level Montreal Center
11:37PM 48.9833 -73.2500 221° Southwest 470 541 34,000  Level Montreal Center
11:38PM 48.8833 -73.3833 221° Southwest 470 541 34,000 -60 Level Montreal Center
11:39PM 48.7833 -73.5167 221° Southwest 470 541 33,900 -60 Descending Montreal Center
11:40PM 48.7000 -73.6500 227° Southwest 460 529 33,900  Level Montreal Center
11:41PM 48.6167 -73.8000 230° Southwest 460 529 33,900  Level Montreal Center
11:42PM 48.5167 -73.9333 221° Southwest 460 529 34,000  Climbing Montreal Center
11:43PM 48.4167 -74.0667 222° Southwest 470 541 34,000  Level Montreal Center
11:44PM 48.3167 -74.2000 222° Southwest 470 541 34,000  Level Montreal Center
11:48PM 47.9900 -74.6550 222° Southwest 468 539 34,000  Level FlightAware ADS-B
11:50PM 47.7700 -74.9500 222° Southwest 469 540 34,000  Level FlightAware ADS-B
11:51PM 47.7150 -75.0230 222° Southwest 470 541 34,000  Level FlightAware ADS-B
11:51PM 47.6660 -75.0870 222° Southwest 472 543 34,000  Level FlightAware ADS-B
11:52PM 47.6080 -75.1650 222° Southwest 473 544 34,000  Level FlightAware ADS-B
11:52PM 47.5260 -75.2720 222° Southwest 475 547 34,000  Level FlightAware ADS-B
11:53PM 47.4630 -75.3550 222° Southwest 476 548 34,000  Level FlightAware ADS-B
11:54PM 47.4080 -75.4270 222° Southwest 474 545 34,000  Level FlightAware ADS-B
11:54PM 47.3480 -75.5030 221° Southwest 472 543 34,000  Level FlightAware ADS-B
11:55PM 47.3000 -75.5660 222° Southwest 473 544 34,000 -120 Level FlightAware ADS-B
11:55PM 47.2410 -75.6420 222° Southwest 471 542 33,900  Descending FlightAware ADS-B
11:56PM 47.1830 -75.7180 222° Southwest 469 540 34,000 120 Climbing FlightAware ADS-B
11:56PM 47.1878 -75.7114 222° Southwest 468 539 34,000  Level FlightAware ADS-B (CYOW)
11:57PM 47.1250 -75.7930 222° Southwest 468 539 34,000  Level FlightAware ADS-B
11:57PM 47.0660 -75.8690 222° Southwest 467 537 34,000  Level FlightAware ADS-B
11:58PM 47.0170 -75.9310 222° Southwest 467 537 34,000  Level FlightAware ADS-B
11:58PM 46.9590 -76.0050 222° Southwest 466 536 34,000  Level FlightAware ADS-B
11:59PM 46.9100 -76.0670 221° Southwest 465 535 34,000  Level FlightAware ADS-B
11:59PM 46.8510 -76.1410 222° Southwest 466 536 34,000  Level FlightAware ADS-B
11:59PM 46.8479 -76.1450 221° Southwest 464 534 34,000  Level FlightAware ADS-B (CYOW)
12:00AM 46.8030 -76.2030 222° Southwest 468 539 34,000  Level FlightAware ADS-B
12:00AM 46.7650 -76.2517 221° Southwest 469 540 34,000  Level FlightAware ADS-B (CYOW)
12:00AM 46.7440 -76.2780 221° Southwest 469 540 34,000  Level FlightAware ADS-B
12:01AM 46.6960 -76.3390 221° Southwest 471 542 34,000  Level FlightAware ADS-B
12:01AM 46.6766 -76.3624 221° Southwest 471 542 34,000  Level FlightAware ADS-B (CYOW)
12:01AM 46.6460 -76.4010 221° Southwest 472 543 34,000  Level FlightAware ADS-B
12:02AM 46.6210 -76.4320 221° Southwest 472 543 34,000  Level FlightAware ADS-B (CYOW)
12:02AM 46.5970 -76.4630 221° Southwest 473 544 34,000  Level FlightAware ADS-B
12:03AM 46.5200 -76.5570 221° Southwest 475 547 34,000  Level FlightAware ADS-B
12:03AM 46.5129 -76.5658 221° Southwest 475 547 34,000  Level FlightAware ADS-B (CYOW)
12:03AM 46.4700 -76.6200 222° Southwest 477 549 34,000  Level FlightAware ADS-B
12:03AM 46.4636 -76.6278 221° Southwest 476 548 34,000 120 Level FlightAware ADS-B (CYOW)
12:04AM 46.4100 -76.6940 221° Southwest 478 550 34,100 120 Climbing FlightAware ADS-B
12:04AM 46.4003 -76.7060 221° Southwest 478 550 34,100 -180 Level FlightAware ADS-B (CYOW)
12:04AM 46.3500 -76.7690 221° Southwest 479 551 34,000 -120 Descending FlightAware ADS-B
12:05AM 46.2521 -76.8892 220° Southwest 475 547 34,000  Level FlightAware ADS-B (CYOW)
12:06AM 46.1889 -76.9666 220° Southwest 472 543 34,000  Level FlightAware ADS-B (CYOW)
12:07AM 46.1105 -77.0623 220° Southwest 469 540 34,000 -120 Level FlightAware ADS-B (CYOW)
12:07AM 46.0590 -77.1252 221° Southwest 467 537 33,900  Descending FlightAware ADS-B (CYOW)
12:08AM 45.9845 -77.2159 220° Southwest 462 532 34,000 60 Climbing FlightAware ADS-B (CYOW)
12:09AM 45.9211 -77.2920 220° Southwest 461 531 34,000  Level FlightAware ADS-B (CYOW)
12:09AM 45.8637 -77.3615 220° Southwest 463 533 34,000  Level FlightAware ADS-B (CYOW)
12:10AM 45.8218 -77.4128 221° Southwest 465 535 34,000  Level FlightAware ADS-B (CYOW)
12:11AM 45.7365 -77.5156 220° Southwest 471 542 34,000  Level FlightAware ADS-B (CYOW)
12:11AM 45.7080 -77.5490 220° Southwest 473 544 34,000  Level FlightAware ADS-B
12:11AM 45.6858 -77.5758 220° Southwest 473 544 34,000  Level FlightAware ADS-B (CYOW)
12:11AM 45.6580 -77.6100 223° Southwest 475 547 34,000  Level FlightAware ADS-B
12:12AM 45.6186 -77.6648 225° Southwest 475 547 34,000  Level FlightAware ADS-B (CYOW)
12:12AM 45.5664 -77.7367 224° Southwest 472 543 34,000  Level FlightAware ADS-B (CYOW)
12:13AM 45.5075 -77.8179 224° Southwest 467 537 34,000  Level FlightAware ADS-B (CYOW)
12:14AM 45.4513 -77.8943 224° Southwest 463 533 34,000  Level FlightAware ADS-B (CYOW)
12:14AM 45.4057 -77.9566 224° Southwest 462 532 34,000  Level FlightAware ADS-B (CYOW)
12:15AM 45.3535 -78.0278 224° Southwest 461 531 34,000  Level FlightAware ADS-B (CYOW)
12:18AM 45.0843 -78.3924 224° Southwest 468 539 34,000  Level FlightAware ADS-B (CYYZ)
12:18AM 45.0714 -78.4098 224° Southwest 468 539 34,000  Level FlightAware ADS-B (CYOW)
12:18AM 45.0322 -78.4628 224° Southwest 469 540 34,000  Level FlightAware ADS-B (CYYZ)
12:19AM 45.0071 -78.4966 224° Southwest 469 540 34,000  Level FlightAware ADS-B (CYYZ)
12:19AM 44.9354 -78.5928 224° Southwest 469 540 34,000  Level FlightAware ADS-B (CYYZ)
12:19AM 44.9052 -78.6331 223° Southwest 467 537 34,000  Level FlightAware ADS-B (CYOW)
12:20AM 44.8882 -78.6557 224° Southwest 468 539 34,000  Level FlightAware ADS-B (CYYZ)
12:20AM 44.8416 -78.7176 224° Southwest 466 536 34,000  Level FlightAware ADS-B (CYYZ)
12:21AM 44.7945 -78.7803 223° Southwest 465 535 34,000  Level FlightAware ADS-B (CYYZ)
12:21AM 44.7438 -78.8338 213° Southwest 472 543 34,000  Level FlightAware ADS-B (CYYZ)
12:22AM 44.6894 -78.8828 214° Southwest 469 540 34,000  Level FlightAware ADS-B (CYYZ)
12:22AM 44.6339 -78.9338 214° Southwest 468 539 34,000  Level FlightAware ADS-B (CYYZ)
12:23AM 44.5805 -78.9825 214° Southwest 467 537 34,000  Level FlightAware ADS-B (CYYZ)
12:23AM 44.5292 -79.0287 213° Southwest 467 537 34,000  Level FlightAware ADS-B (CYYZ)
12:24AM 44.4715 -79.0806 213° Southwest 467 537 34,000  Level FlightAware ADS-B (CYYZ)
12:24AM 44.4553 -79.0952 213° Southwest 466 536 34,000  Level FlightAware ADS-B (CYKF)
12:25AM 44.3467 -79.1919 213° Southwest 468 539 34,000  Level FlightAware ADS-B (CYKF)
12:26AM 44.2371 -79.2894 212° Southwest 474 545 34,000  Level FlightAware ADS-B (CYKF)
12:27AM 44.1262 -79.3873 212° Southwest 478 550 34,000  Level FlightAware ADS-B (CYKF)
12:28AM 44.0315 -79.4699 213° Southwest 477 549 34,000  Level FlightAware ADS-B (CYKF)
12:29AM 43.9052 -79.5802 212° Southwest 477 549 34,000  Level FlightAware ADS-B (CYKF)
12:30AM 43.7976 -79.6778 220° Southwest 472 543 34,000  Level FlightAware ADS-B (CYYZ)
12:30AM 43.8007 -79.6744 220° Southwest 470 541 34,000  Level FlightAware ADS-B (CYKF)
12:30AM 43.7475 -79.7356 220° Southwest 471 542 34,000  Level FlightAware ADS-B (CYYZ)
12:31AM 43.6980 -79.7912 220° Southwest 469 540 34,000  Level FlightAware ADS-B (CYYZ)
12:31AM 43.6675 -79.8254 219° Southwest 467 537 34,000  Level FlightAware ADS-B (CYHM)
12:31AM 43.6465 -79.8490 220° Southwest 468 539 34,000  Level FlightAware ADS-B (CYYZ)
12:32AM 43.5974 -79.9039 220° Southwest 469 540 34,000  Level FlightAware ADS-B (CYYZ)
12:32AM 43.5922 -79.9097 219° Southwest 467 537 34,000 -240 Level FlightAware ADS-B (CYHM)
12:32AM 43.5477 -79.9599 220° Southwest 467 537 33,900 -180 Descending FlightAware ADS-B (CYYZ)
12:32AM 43.5233 -79.9872 219° Southwest 465 535 33,900 180 Level FlightAware ADS-B (CYHM)
12:33AM 43.4958 -80.0183 220° Southwest 466 536 34,000 300 Climbing FlightAware ADS-B (CYYZ)
12:33AM 43.4950 -80.0191 220° Southwest 465 535 34,000  Level FlightAware ADS-B (CYKF)
12:33AM 43.4469 -80.0740 220° Southwest 465 535 34,000  Level FlightAware ADS-B (CYYZ)
12:33AM 43.4401 -80.0816 219° Southwest 464 534 34,000  Level FlightAware ADS-B (CYHM)
12:34AM 43.3978 -80.1289 219° Southwest 465 535 34,000  Level FlightAware ADS-B (CYYZ)
12:34AM 43.3925 -80.1347 219° Southwest 464 534 34,000  Level FlightAware ADS-B (CYHM)
12:34AM 43.3471 -80.1853 220° Southwest 464 534 34,000  Level FlightAware ADS-B (CYYZ)
12:35AM 43.2975 -80.2402 219° Southwest 464 534 34,000  Level FlightAware ADS-B (CYYZ)
12:35AM 43.2928 -80.2454 219° Southwest 464 534 34,000  Level FlightAware ADS-B (CYKF)
12:35AM 43.2466 -80.2963 219° Southwest 465 535 34,000  Level FlightAware ADS-B (CYYZ)
12:36AM 43.1994 -80.3485 220° Southwest 467 537 34,000  Level FlightAware ADS-B (CYYZ)
12:36AM 43.1917 -80.3571 219° Southwest 466 536 34,000  Level FlightAware ADS-B (CYKF)
12:36AM 43.1468 -80.4077 220° Southwest 470 541 34,000 120 Level FlightAware ADS-B (CYYZ)
12:37AM 43.1157 -80.4419 219° Southwest 471 542 34,100 60 Climbing FlightAware ADS-B (CYKF)
12:37AM 43.0544 -80.5090 219° Southwest 473 544 34,100 -120 Level FlightAware ADS-B (CYYZ)
12:38AM 43.0031 -80.5655 219° Southwest 474 545 34,000 -120 Descending FlightAware ADS-B (CYYZ)
12:38AM 42.9510 -80.6219 219° Southwest 474 545 34,000  Level FlightAware ADS-B (CYYZ)
12:39AM 42.9006 -80.6777 220° Southwest 472 543 34,000  Level FlightAware ADS-B (CYYZ)
12:39AM 42.9344 -80.6399 220° Southwest 471 542 34,000  Level FlightAware ADS-B (CYKF)
12:39AM 42.8503 -80.7347 220° Southwest 472 543 34,000  Level FlightAware ADS-B (CYYZ)
12:40AM 42.8000 -80.7915 220° Southwest 470 541 34,000  Level FlightAware ADS-B (CYYZ)
12:40AM 42.7857 -80.8074 220° Southwest 470 541 34,000  Level FlightAware ADS-B (CYKF)
12:40AM 42.7507 -80.8466 220° Southwest 468 539 34,000  Level FlightAware ADS-B (CYYZ)
12:41AM 42.7023 -80.9005 220° Southwest 467 537 34,000  Level FlightAware ADS-B (CYYZ)
12:41AM 42.6500 -80.9583 219° Southwest 467 537 34,000 -120 Level FlightAware ADS-B (CYYZ)
12:42AM 42.6003 -81.0126 219° Southwest 467 537 33,900  Descending FlightAware ADS-B (CYYZ)
12:42AM 42.5502 -81.0683 220° Southwest 465 535 34,000 60 Climbing FlightAware ADS-B (CYYZ)
12:43AM 42.4996 -81.1244 220° Southwest 464 534 34,000  Level FlightAware ADS-B (CYYZ)
12:43AM 42.4496 -81.1792 220° Southwest 464 534 34,000  Level FlightAware ADS-B (CYYZ)
12:44AM 42.4002 -81.2335 220° Southwest 465 535 34,000  Level FlightAware ADS-B (CYYZ)
12:44AM 42.3503 -81.2880 219° Southwest 467 537 34,000  Level FlightAware ADS-B (CYYZ)
12:45AM 42.3009 -81.3420 220° Southwest 468 539 34,000  Level FlightAware ADS-B (CYYZ)
12:45AM 42.2512 -81.3964 220° Southwest 470 541 34,000  Level FlightAware ADS-B (CYYZ)
12:46AM 42.1982 -81.4543 220° Southwest 471 542 34,000 60 Level FlightAware ADS-B (CYYZ)
12:46AM 42.1479 -81.5092 219° Southwest 472 543 34,100 60 Climbing FlightAware ADS-B (CYYZ)
12:47AM 42.0984 -81.5631 220° Southwest 472 543 34,100 -120 Level FlightAware ADS-B (CYYZ)
12:47AM 42.0528 -81.6123 219° Southwest 473 544 34,000 -120 Descending FlightAware ADS-B (CYYZ)
12:48AM 41.9979 -81.6708 219° Southwest 471 542 34,000  Level FlightAware ADS-B (CYYZ)
12:48AM 41.9511 -81.7210 219° Southwest 469 540 34,000  Level FlightAware ADS-B (CYYZ)
12:49AM 41.8949 -81.7816 219° Southwest 467 537 34,000  Level FlightAware ADS-B (CYYZ)
12:49AM 41.8438 -81.8365 219° Southwest 465 535 34,000  Level FlightAware ADS-B (CYYZ)
12:50AM 41.7935 -81.8908 220° Southwest 462 532 34,000  Level FlightAware ADS-B (CYYZ)
12:50AM 41.7446 -81.9434 219° Southwest 461 531 34,000  Level FlightAware ADS-B (CYYZ)
12:51AM 41.7081 -81.9823 219° Southwest 459 528 34,000 -120 Level FlightAware ADS-B (CYYZ)
12:52AM 41.6189 -82.0756 219° Southwest 457 526 33,900 -120 Descending Indianapolis Center
12:52AM 41.5692 -82.1286 219° Southwest 458 527 33,900 60 Level Cleveland Center
12:53AM 41.4697 -82.2347 219° Southwest 458 527 34,000  Climbing Cleveland Center
12:54AM 41.3686 -82.3414 218° Southwest 462 532 34,000  Level Cleveland Center
12:55AM 41.2658 -82.4489 218° Southwest 465 535 34,000  Level Cleveland Center
12:56AM 41.1628 -82.5561 218° Southwest 466 536 34,000  Level Cleveland Center
12:57AM 41.0592 -82.6639 218° Southwest 467 537 34,000  Level Cleveland Center
12:58AM 40.9556 -82.7711 218° Southwest 469 540 34,000  Level Cleveland Center
12:59AM 40.8517 -82.8783 218° Southwest 470 541 34,000  Level Cleveland Center
01:00AM 40.7997 -82.9319 218° Southwest 470 541 34,000  Level Indianapolis Center
01:01AM 40.6961 -83.0394 218° Southwest 470 541 34,000  Level Indianapolis Center
01:02AM 40.5783 -83.1592 218° Southwest 470 541 34,000  Level Indianapolis Center
01:03AM 40.4794 -83.2583 217° Southwest 465 535 34,000 -60 Level Indianapolis Center
01:04AM 40.3833 -83.3561 218° Southwest 459 528 33,900  Descending Indianapolis Center
01:07AM 40.0340 -83.7076 217° Southwest 465 535 34,000  Climbing FlightAware ADS-B (KPMH)
01:09AM 39.8138 -83.9256 217° Southwest 465 535 34,000 -120 Level FlightAware ADS-B (KPMH)
01:10AM 39.7247 -84.0139 217° Southwest 455 524 33,800 -360 Descending Cleveland Center
01:11AM 39.6850 -84.0533 217° Southwest 455 524 33,500 -1,860 Descending Indianapolis Center
01:16AM 39.1101 -84.6133 218° Southwest 393 452 22,300 -1,980 Descending FlightAware ADS-B (KCVG)
01:17AM 39.0564 -84.6650 216° Southwest 386 444 20,900 -2,280 Descending FlightAware ADS-B (KCVG)
01:18AM 38.9945 -84.7242 217° Southwest 379 436 19,300 -2,220 Descending FlightAware ADS-B (KCVG)
01:18AM 38.9392 -84.7788 217° Southwest 373 429 17,900 -2,220 Descending FlightAware ADS-B (KCVG)
01:19AM 38.9027 -84.8136 217° Southwest 369 425 16,700 -2,220 Descending FlightAware ADS-B (KCVG)
01:20AM 38.8537 -84.8610 217° Southwest 365 420 15,600 -2,100 Descending FlightAware ADS-B (KCVG)
01:20AM 38.8153 -84.8979 217° Southwest 359 413 14,500 -1,620 Descending FlightAware ADS-B (KCVG)
01:21AM 38.7744 -84.9369 216° Southwest 341 392 14,000 -1,320 Descending FlightAware ADS-B (KCVG)
01:21AM 38.7367 -84.9730 217° Southwest 333 383 13,200 -1,140 Descending FlightAware ADS-B (KCVG)
01:22AM 38.6984 -85.0101 218° Southwest 334 384 12,900 -780 Descending FlightAware ADS-B (KCVG)
01:22AM 38.6567 -85.0527 218° Southwest 355 409 12,400 -960 Descending FlightAware ADS-B (KCVG)
01:23AM 38.6151 -85.0926 218° Southwest 355 409 11,900 -900 Descending FlightAware ADS-B (KCVG)
01:24AM 38.5124 -85.1880 218° Southwest 292 336 10,600 -840 Descending FlightAware ADS-B (KBRY)
01:25AM 38.4487 -85.2510 218° Southwest 274 315 9,900 -360 Descending FlightAware ADS-B (KBRY)
01:26AM 38.3706 -85.3258 217° Southwest 275 316 9,900 -360 Level FlightAware ADS-B (KBRY)
01:27AM 38.3079 -85.3842 215° Southwest 276 318 9,100 -1,200 Descending FlightAware ADS-B (KBRY)
01:28AM 38.2424 -85.4313 183° South 286 329 7,600 -1,140 Descending FlightAware ADS-B (KBRY)
01:29AM 38.1662 -85.4451 192° South 274 315 6,900 -780 Descending FlightAware ADS-B (KBRY)
01:30AM 38.0930 -85.4773 213° Southwest 260 299 6,100 -540 Descending FlightAware ADS-B (KBRY)
01:31AM 38.0339 -85.5248 213° Southwest 241 277 5,900 -840 Descending FlightAware ADS-B (KBRY)
01:32AM 37.9847 -85.5791 256° West 227 261 4,500 -1,020 Descending FlightAware ADS-B (KBRY)
01:33AM 37.9730 -85.6531 269° West 196 226 3,900 -780 Descending FlightAware ADS-B (KBRY)
01:35AM 38.0215 -85.6944 346° North 192 221 2,900 -780 Descending FlightAware ADS-B (KBRY)
01:36AM 38.0721 -85.7110 346° North 181 208 2,200 -960 Descending FlightAware ADS-B (KBRY)
01:36AM 38.1042 -85.7215 346° North 172 198 1,300 -1,380 Descending FlightAware ADS-B (KBRY)